createdAt,value
2023-03-15T00:01:09.220Z,20.20
2023-03-15T00:03:37.540Z,18.10
2023-03-15T00:06:05.843Z,16.80
2023-03-15T00:08:34.374Z,14.90
2023-03-15T00:11:02.579Z,17.50
2023-03-15T00:13:30.810Z,16.50
2023-03-15T00:16:01.299Z,14.50
2023-03-15T00:18:30.153Z,14.60
2023-03-15T00:20:58.943Z,16.60
2023-03-15T00:23:26.989Z,15.70
2023-03-15T00:25:55.415Z,13.50
2023-03-15T00:28:23.332Z,14.30
2023-03-15T00:31:07.989Z,16.40
2023-03-15T00:33:36.872Z,16.10
2023-03-15T00:36:07.049Z,14.50
2023-03-15T00:38:36.817Z,11.90
2023-03-15T00:41:14.020Z,15.00
2023-03-15T00:43:43.006Z,13.30
2023-03-15T00:46:12.088Z,9.80
2023-03-15T00:48:40.527Z,5.30
2023-03-15T00:51:16.618Z,6.50
2023-03-15T00:53:46.328Z,5.00
2023-03-15T00:56:21.110Z,4.60
2023-03-15T00:58:49.784Z,3.90
2023-03-15T01:01:22.875Z,4.00
2023-03-15T01:03:51.188Z,4.50
2023-03-15T01:06:22.064Z,3.70
2023-03-15T01:08:50.311Z,3.40
2023-03-15T01:11:22.460Z,3.50
2023-03-15T01:13:56.028Z,3.40
2023-03-15T01:17:15.491Z,4.00
2023-03-15T01:19:43.459Z,4.30
2023-03-15T01:22:11.429Z,4.40
2023-03-15T01:24:39.323Z,4.20
2023-03-15T01:27:07.203Z,4.90
2023-03-15T01:29:35.117Z,3.80
2023-03-15T01:32:03.518Z,3.60
2023-03-15T01:34:31.589Z,3.70
2023-03-15T01:36:59.551Z,4.10
2023-03-15T01:39:33.234Z,4.60
2023-03-15T01:42:02.800Z,4.00
2023-03-15T01:44:52.646Z,4.30
2023-03-15T01:47:21.361Z,5.20
2023-03-15T01:49:55.448Z,5.00
2023-03-15T01:52:30.372Z,3.90
2023-03-15T01:55:11.830Z,4.50
2023-03-15T01:57:51.224Z,4.90
2023-03-15T02:00:20.380Z,4.50
2023-03-15T02:03:04.100Z,4.90
2023-03-15T02:07:12.923Z,4.60
2023-03-15T02:11:41.750Z,6.70
2023-03-15T02:16:10.650Z,5.20
2023-03-15T02:38:54.701Z,5.80
2023-03-15T02:41:32.523Z,7.10
2023-03-15T02:44:08.825Z,9.30
2023-03-15T02:46:37.391Z,8.70
2023-03-15T02:49:08.192Z,7.60
2023-03-15T02:51:36.181Z,8.60
2023-03-15T02:54:04.078Z,6.80
2023-03-15T02:56:33.647Z,8.50
2023-03-15T02:59:02.406Z,8.70
2023-03-15T03:01:31.850Z,8.80
2023-03-15T03:03:59.908Z,9.90
2023-03-15T03:06:27.868Z,9.00
2023-03-15T03:08:56.193Z,8.40
2023-03-15T03:11:24.593Z,8.00
2023-03-15T03:13:57.194Z,7.10
2023-03-15T03:16:25.570Z,7.90
2023-03-15T03:18:53.496Z,8.80
2023-03-15T03:21:21.457Z,7.30
2023-03-15T03:23:51.218Z,8.50
2023-03-15T03:26:19.409Z,8.40
2023-03-15T03:28:48.805Z,9.90
2023-03-15T03:31:22.884Z,8.40
2023-03-15T03:33:52.086Z,10.80
2023-03-15T03:36:20.259Z,10.60
2023-03-15T03:38:48.338Z,8.70
2023-03-15T03:41:16.528Z,10.40
2023-03-15T03:43:44.562Z,8.90
2023-03-15T03:46:12.704Z,12.60
2023-03-15T03:48:44.640Z,10.50
2023-03-15T03:51:12.605Z,12.50
2023-03-15T03:53:40.687Z,14.00
2023-03-15T03:56:08.890Z,10.60
2023-03-15T03:58:37.419Z,10.50
2023-03-15T04:01:13.728Z,10.50
2023-03-15T04:03:41.884Z,10.20
2023-03-15T04:06:13.162Z,11.40
2023-03-15T04:08:44.327Z,9.80
2023-03-15T04:11:17.863Z,14.80
2023-03-15T04:13:51.393Z,10.10
2023-03-15T04:16:20.346Z,12.30
2023-03-15T04:18:57.884Z,13.80
2023-03-15T04:21:26.409Z,9.60
2023-03-15T04:23:59.841Z,10.00
2023-03-15T04:26:58.525Z,11.60
2023-03-15T04:29:58.756Z,11.10
2023-03-15T04:32:45.004Z,12.50
2023-03-15T04:35:32.787Z,14.40
2023-03-15T04:38:20.334Z,13.10
2023-03-15T04:41:18.825Z,15.70
2023-03-15T04:44:06.828Z,13.40
2023-03-15T04:46:55.610Z,12.50
2023-03-15T04:49:49.512Z,16.60
2023-03-15T04:52:33.959Z,20.90
2023-03-15T04:55:20.929Z,15.00
2023-03-15T04:58:09.095Z,13.00
2023-03-15T05:00:55.850Z,16.00
2023-03-15T05:03:31.397Z,14.10
2023-03-15T05:06:19.528Z,14.20
2023-03-15T05:09:07.692Z,12.80
2023-03-15T05:11:56.074Z,13.70
2023-03-15T05:14:54.277Z,16.40
2023-03-15T05:17:36.287Z,13.60
2023-03-15T05:20:30.775Z,15.90
2023-03-15T05:23:13.868Z,13.10
2023-03-15T05:25:55.632Z,12.80
2023-03-15T05:28:45.426Z,15.50
2023-03-15T05:31:37.354Z,11.90
2023-03-15T05:34:14.765Z,12.10
2023-03-15T05:37:02.905Z,17.20
2023-03-15T05:42:35.854Z,14.30
2023-03-15T05:45:24.275Z,13.90
2023-03-15T05:48:10.365Z,12.10
2023-03-15T05:50:49.649Z,11.30
2023-03-15T05:53:33.045Z,14.70
2023-03-15T05:56:33.331Z,16.20
2023-03-15T05:59:20.096Z,17.40
2023-03-15T06:02:15.191Z,14.00
2023-03-15T06:04:52.159Z,14.30
2023-03-15T06:07:22.453Z,12.90
2023-03-15T06:09:52.137Z,13.00
2023-03-15T06:12:20.238Z,15.90
2023-03-15T06:14:48.573Z,11.50
2023-03-15T06:17:16.450Z,17.80
2023-03-15T06:19:45.190Z,14.70
2023-03-15T06:22:13.135Z,17.10
2023-03-15T06:24:52.418Z,16.10
2023-03-15T06:27:22.333Z,15.40
2023-03-15T06:29:51.154Z,17.40
2023-03-15T06:32:20.924Z,15.60
2023-03-15T06:34:48.953Z,13.20
2023-03-15T06:37:28.849Z,16.90
2023-03-15T06:40:01.013Z,17.70
2023-03-15T06:42:28.890Z,16.50
2023-03-15T06:44:56.855Z,16.90
2023-03-15T06:47:24.881Z,14.00
2023-03-15T06:49:54.422Z,17.00
2023-03-15T06:52:23.891Z,20.60
2023-03-15T06:54:51.915Z,18.00
2023-03-15T06:57:19.978Z,16.70
2023-03-15T06:59:47.877Z,15.70
2023-03-15T07:02:18.070Z,16.10
2023-03-15T07:04:46.424Z,18.60
2023-03-15T07:07:14.784Z,14.20
2023-03-15T07:09:42.860Z,17.80
2023-03-15T07:12:11.879Z,16.70
2023-03-15T07:14:39.832Z,18.80
2023-03-15T07:17:07.929Z,18.20
2023-03-15T07:19:39.111Z,17.80
2023-03-15T07:22:09.578Z,16.90
2023-03-15T07:24:37.480Z,17.00
2023-03-15T07:27:05.766Z,16.40
2023-03-15T07:29:33.863Z,16.00
2023-03-15T07:32:01.854Z,12.70
2023-03-15T07:34:29.867Z,14.10
2023-03-15T07:36:57.845Z,13.20
2023-03-15T07:39:26.916Z,14.10
2023-03-15T07:41:54.839Z,16.60
2023-03-15T07:44:31.748Z,12.70
2023-03-15T07:46:59.756Z,12.70
2023-03-15T07:49:27.727Z,15.00
2023-03-15T07:51:55.903Z,16.90
2023-03-15T07:54:23.851Z,15.80
2023-03-15T07:58:06.514Z,15.40
2023-03-15T08:00:34.540Z,15.50
2023-03-15T08:03:02.536Z,19.10
2023-03-15T08:05:30.525Z,13.60
2023-03-15T08:07:58.948Z,18.20
2023-03-15T08:10:27.469Z,15.10
2023-03-15T08:12:55.559Z,15.70
2023-03-15T08:15:23.850Z,15.70
2023-03-15T08:17:51.801Z,11.80
2023-03-15T08:20:19.928Z,15.40
2023-03-15T08:22:49.211Z,12.90
2023-03-15T08:25:25.083Z,15.50
2023-03-15T08:27:53.466Z,12.70
2023-03-15T08:30:22.428Z,15.40
2023-03-15T08:32:52.691Z,13.70
2023-03-15T08:35:22.301Z,14.80
2023-03-15T08:37:52.484Z,11.60
2023-03-15T08:40:24.110Z,14.80
2023-03-15T08:42:54.120Z,14.90
2023-03-15T08:45:28.136Z,16.60
2023-03-15T08:47:59.770Z,14.60
2023-03-15T08:50:32.249Z,14.70
2023-03-15T08:53:22.443Z,15.60
2023-03-15T08:55:51.436Z,12.70
2023-03-15T08:58:19.607Z,13.60
2023-03-15T09:00:49.938Z,8.60
2023-03-15T09:03:19.466Z,12.40
2023-03-15T09:05:47.457Z,14.30
2023-03-15T09:08:17.128Z,13.00
2023-03-15T09:10:45.143Z,14.30
2023-03-15T09:13:13.393Z,16.80
2023-03-15T09:15:41.578Z,13.60
2023-03-15T09:18:09.534Z,14.50
2023-03-15T09:20:40.067Z,11.70
2023-03-15T09:23:07.947Z,10.80
2023-03-15T09:25:37.200Z,12.60
2023-03-15T09:28:08.970Z,12.70
2023-03-15T09:30:38.758Z,12.60
2023-03-15T09:33:07.754Z,12.40
2023-03-15T09:35:36.295Z,11.00
2023-03-15T09:38:04.415Z,10.30
2023-03-15T09:40:38.997Z,10.20
2023-03-15T09:45:48.679Z,12.10
2023-03-15T09:48:26.198Z,11.20
2023-03-15T09:51:01.332Z,13.50
2023-03-15T09:53:29.607Z,11.10
2023-03-15T09:55:58.738Z,11.50
2023-03-15T09:58:36.008Z,12.80
2023-03-15T10:01:07.467Z,12.00
2023-03-15T10:03:44.571Z,11.50
2023-03-15T10:06:29.216Z,10.60
2023-03-15T10:09:04.713Z,10.00
2023-03-15T10:12:03.491Z,10.90
2023-03-15T10:15:09.110Z,13.00
2023-03-15T10:17:48.278Z,11.80
2023-03-15T10:20:27.791Z,11.40
2023-03-15T10:23:19.757Z,13.60
2023-03-15T10:25:51.316Z,10.00
2023-03-15T10:28:19.539Z,9.10
2023-03-15T10:30:50.365Z,9.30
2023-03-15T10:33:29.729Z,10.80
2023-03-15T10:36:07.816Z,11.90
2023-03-15T10:38:42.594Z,11.40
2023-03-15T10:41:23.450Z,9.50
2023-03-15T10:44:05.147Z,10.10
2023-03-15T10:46:35.676Z,10.90
2023-03-15T10:49:12.893Z,9.90
2023-03-15T10:51:47.278Z,11.00
2023-03-15T10:54:18.581Z,9.60
2023-03-15T10:57:14.348Z,8.20
2023-03-15T11:00:00.443Z,9.50
2023-03-15T11:02:28.450Z,9.20
2023-03-15T11:05:09.735Z,8.90
2023-03-15T11:07:37.841Z,10.90
2023-03-15T11:10:07.086Z,8.50
2023-03-15T11:12:35.349Z,11.10
2023-03-15T11:15:19.872Z,8.90
2023-03-15T11:17:49.940Z,11.20
2023-03-15T11:20:18.601Z,11.70
2023-03-15T11:22:46.685Z,9.10
2023-03-15T11:25:16.802Z,9.90
2023-03-15T11:27:51.178Z,11.00
2023-03-15T11:30:24.001Z,12.40
2023-03-15T11:32:52.968Z,10.70
2023-03-15T11:35:32.453Z,8.00
2023-03-15T11:38:15.476Z,8.40
2023-03-15T11:40:48.185Z,7.70
2023-03-15T11:43:23.269Z,8.70
2023-03-15T11:45:55.827Z,7.30
2023-03-15T11:49:00.475Z,10.10
2023-03-15T11:51:39.244Z,9.90
2023-03-15T11:54:15.925Z,8.50
2023-03-15T11:56:43.848Z,8.00
2023-03-15T11:59:17.851Z,8.20
2023-03-15T12:01:59.054Z,6.70
2023-03-15T12:04:33.155Z,7.00
2023-03-15T12:07:07.409Z,10.10
2023-03-15T12:09:38.396Z,12.10
2023-03-15T12:12:26.845Z,9.80
2023-03-15T12:15:39.813Z,7.60
2023-03-15T12:18:15.226Z,8.60
2023-03-15T12:21:09.155Z,10.00
2023-03-15T12:23:41.234Z,12.90
2023-03-15T12:26:17.457Z,9.60
2023-03-15T12:29:11.051Z,11.90
2023-03-15T12:31:52.548Z,10.90
2023-03-15T12:34:53.893Z,9.90
2023-03-15T12:37:32.475Z,11.10
2023-03-15T12:40:26.606Z,8.40
2023-03-15T12:42:54.882Z,11.60
2023-03-15T12:45:37.389Z,8.40
2023-03-15T12:48:13.177Z,9.60
2023-03-15T12:50:43.993Z,9.00
2023-03-15T12:53:31.088Z,13.10
2023-03-15T12:56:33.856Z,9.70
2023-03-15T12:59:25.429Z,10.10
2023-03-15T13:01:53.430Z,8.90
2023-03-15T13:04:22.086Z,6.80
2023-03-15T13:07:20.791Z,7.20
2023-03-15T13:10:04.939Z,7.30
2023-03-15T13:12:45.698Z,10.80
2023-03-15T13:15:26.262Z,9.70
2023-03-15T13:18:03.330Z,8.10
2023-03-15T13:20:43.437Z,8.50
2023-03-15T13:23:26.168Z,9.00
2023-03-15T13:26:17.572Z,6.90
2023-03-15T13:29:00.260Z,8.60
2023-03-15T13:31:31.632Z,9.20
2023-03-15T13:34:28.865Z,9.40
2023-03-15T13:36:59.199Z,9.60
2023-03-15T13:39:33.121Z,9.10
2023-03-15T13:42:07.223Z,7.30
2023-03-15T13:44:35.230Z,8.20
2023-03-15T13:47:03.235Z,9.40
2023-03-15T13:49:33.283Z,8.10
2023-03-15T13:52:06.805Z,9.10
2023-03-15T13:54:35.180Z,10.80
2023-03-15T13:57:07.528Z,9.10
2023-03-15T13:59:43.064Z,12.30
2023-03-15T14:02:26.960Z,10.70
2023-03-15T14:05:03.098Z,9.50
2023-03-15T14:07:40.171Z,8.40
2023-03-15T14:10:29.338Z,15.10
2023-03-15T14:13:15.165Z,16.40
2023-03-15T14:15:44.563Z,10.60
2023-03-15T14:18:24.079Z,13.30
2023-03-15T14:21:00.389Z,12.50
2023-03-15T14:23:30.164Z,10.80
2023-03-15T14:26:37.490Z,10.50
2023-03-15T14:29:19.020Z,16.80
2023-03-15T14:31:50.326Z,12.80
2023-03-15T14:34:45.066Z,12.20
2023-03-15T14:37:35.282Z,10.00
2023-03-15T14:40:18.408Z,10.40
2023-03-15T14:42:47.217Z,11.90
2023-03-15T14:45:16.307Z,15.10
2023-03-15T14:47:57.088Z,13.50
2023-03-15T14:50:34.394Z,13.50
2023-03-15T14:53:03.154Z,10.30
2023-03-15T14:55:35.023Z,12.90
2023-03-15T14:58:05.350Z,12.30
2023-03-15T15:00:33.634Z,11.80
2023-03-15T15:03:02.453Z,12.80
2023-03-15T15:05:33.884Z,12.60
2023-03-15T15:08:22.443Z,12.70
2023-03-15T15:10:52.891Z,13.40
2023-03-15T15:13:29.119Z,12.60
2023-03-15T15:15:57.709Z,14.00
2023-03-15T15:18:28.625Z,10.10
2023-03-15T15:21:00.343Z,10.60
2023-03-15T15:23:41.845Z,16.30
2023-03-15T15:26:22.229Z,10.00
2023-03-15T15:28:50.377Z,10.70
2023-03-15T15:31:22.901Z,13.60
2023-03-15T15:33:51.932Z,13.00
2023-03-15T15:36:32.796Z,12.30
2023-03-15T15:39:06.442Z,9.80
2023-03-15T15:41:35.766Z,11.30
2023-03-15T15:44:03.995Z,11.00
2023-03-15T15:46:32.637Z,12.50
2023-03-15T15:49:00.815Z,11.00
2023-03-15T15:51:32.029Z,9.70
2023-03-15T15:54:01.723Z,14.80
2023-03-15T15:56:44.393Z,14.50
2023-03-15T15:59:15.057Z,20.60
2023-03-15T16:01:58.799Z,14.80
2023-03-15T16:07:00.178Z,11.90
2023-03-15T16:09:30.307Z,16.90
2023-03-15T16:11:58.636Z,12.70
2023-03-15T16:14:26.675Z,13.00
2023-03-15T16:16:54.689Z,15.60
2023-03-15T16:19:22.670Z,12.30
2023-03-15T16:21:54.466Z,13.30
2023-03-15T16:24:28.960Z,14.90
2023-03-15T16:29:38.389Z,15.60
2023-03-15T16:32:19.092Z,14.60
2023-03-15T16:37:45.772Z,16.70
2023-03-15T16:40:21.943Z,17.70
2023-03-15T16:42:50.751Z,17.60
2023-03-15T16:45:19.931Z,21.00
2023-03-15T16:47:49.533Z,30.20
2023-03-15T16:50:19.350Z,26.20
2023-03-15T16:52:49.800Z,20.10
2023-03-15T16:55:25.094Z,18.40
2023-03-15T16:58:31.017Z,19.50
2023-03-15T17:01:00.302Z,20.90
2023-03-15T17:03:30.087Z,20.60
2023-03-15T17:05:58.188Z,20.90
2023-03-15T17:08:26.367Z,19.60
2023-03-15T17:10:54.402Z,22.20
2023-03-15T17:13:27.599Z,21.00
2023-03-15T17:15:56.121Z,21.00
2023-03-15T17:18:24.347Z,23.60
2023-03-15T17:20:53.047Z,24.00
2023-03-15T17:23:26.976Z,26.20
2023-03-15T17:25:55.223Z,27.00
2023-03-15T17:28:23.436Z,31.40
2023-03-15T17:30:59.635Z,29.40
2023-03-15T17:33:56.707Z,32.40
2023-03-15T17:36:28.426Z,30.10
2023-03-15T17:39:07.723Z,30.10
2023-03-15T17:41:39.011Z,34.90
2023-03-15T17:44:07.090Z,31.40
2023-03-15T17:46:35.233Z,32.30
2023-03-15T17:49:05.097Z,34.60
2023-03-15T17:51:35.620Z,35.90
2023-03-15T17:54:23.665Z,35.70
2023-03-15T17:56:53.442Z,42.00
2023-03-15T17:59:21.788Z,54.70
2023-03-15T18:01:49.901Z,49.50
2023-03-15T18:04:23.975Z,54.90
2023-03-15T18:06:53.424Z,52.00
2023-03-15T18:09:26.569Z,54.70
2023-03-15T18:11:54.475Z,70.10
2023-03-15T18:14:22.578Z,63.20
2023-03-15T18:16:51.172Z,76.20
2023-03-15T18:19:19.641Z,63.70
2023-03-15T18:21:48.084Z,69.40
2023-03-15T18:24:16.009Z,58.30
2023-03-15T18:26:43.949Z,66.70
2023-03-15T18:29:12.198Z,65.60
2023-03-15T18:31:41.444Z,66.20
2023-03-15T18:34:15.237Z,66.90
2023-03-15T18:36:43.241Z,74.50
2023-03-15T18:39:11.347Z,101.30
2023-03-15T18:41:40.222Z,90.30
2023-03-15T18:44:10.902Z,148.40
2023-03-15T18:46:39.322Z,199.20
2023-03-15T18:49:07.872Z,251.90
2023-03-15T18:51:37.052Z,214.80
2023-03-15T18:54:05.970Z,202.00
2023-03-15T18:56:34.593Z,171.50
2023-03-15T18:59:03.343Z,136.90
2023-03-15T19:01:32.658Z,139.90
2023-03-15T19:04:00.770Z,122.10
2023-03-15T19:06:28.838Z,118.20
2023-03-15T19:08:57.485Z,122.40
2023-03-15T19:11:27.053Z,100.60
2023-03-15T19:13:55.106Z,117.00
2023-03-15T19:16:24.067Z,103.50
2023-03-15T19:18:52.686Z,108.30
2023-03-15T19:21:20.892Z,89.20
2023-03-15T19:23:49.032Z,108.30
2023-03-15T19:26:17.244Z,121.50
2023-03-15T19:28:45.233Z,132.40
2023-03-15T19:31:13.304Z,108.30
2023-03-15T19:33:41.298Z,77.50
2023-03-15T19:36:09.947Z,65.30
2023-03-15T19:38:38.215Z,61.20
2023-03-15T19:41:08.586Z,57.20
2023-03-15T19:43:38.342Z,71.70
2023-03-15T19:47:07.052Z,89.80
2023-03-15T19:51:25.537Z,154.70
2023-03-15T19:53:54.032Z,163.20
2023-03-15T19:56:25.699Z,160.50
2023-03-15T19:58:59.368Z,151.10
2023-03-15T20:01:27.661Z,123.40
2023-03-15T20:03:56.284Z,114.80
2023-03-15T20:06:24.272Z,125.90
2023-03-15T20:08:52.202Z,116.50
2023-03-15T20:11:25.123Z,140.10
2023-03-15T20:13:53.675Z,160.50
2023-03-15T20:16:22.697Z,148.40
2023-03-15T20:18:55.775Z,133.40
2023-03-15T20:21:44.021Z,115.70
2023-03-15T20:24:12.006Z,130.60
2023-03-15T20:26:40.194Z,128.80
2023-03-15T20:29:08.252Z,121.80
2023-03-15T20:31:36.328Z,126.50
2023-03-15T20:34:05.845Z,123.40
2023-03-15T20:36:35.026Z,144.50
2023-03-15T20:39:04.923Z,133.90
2023-03-15T20:41:33.411Z,118.80
2023-03-15T20:44:01.428Z,121.70
2023-03-15T20:46:29.776Z,105.20
2023-03-15T20:48:58.140Z,122.70
2023-03-15T20:51:44.115Z,94.30
2023-03-15T20:54:32.589Z,84.60
2023-03-15T20:57:00.730Z,87.30
2023-03-15T20:59:31.091Z,78.10
2023-03-15T21:02:01.270Z,69.70
2023-03-15T21:04:29.203Z,58.70
2023-03-15T21:06:57.432Z,63.10
2023-03-15T21:09:25.502Z,62.40
2023-03-15T21:11:59.702Z,64.40
2023-03-15T21:14:27.808Z,57.30
2023-03-15T21:16:56.423Z,62.20
2023-03-15T21:19:24.900Z,60.40
2023-03-15T21:21:53.185Z,62.90
2023-03-15T21:24:21.590Z,61.70
2023-03-15T21:26:54.774Z,73.40
2023-03-15T21:29:28.578Z,78.30
2023-03-15T21:32:14.630Z,80.60
2023-03-15T21:34:53.172Z,69.60
2023-03-15T21:37:41.596Z,63.50
2023-03-15T22:18:08.626Z,40.70
2023-03-15T22:20:42.197Z,37.20
2023-03-15T22:23:17.038Z,38.30
2023-03-15T22:25:53.578Z,38.00
2023-03-15T22:28:28.183Z,36.70
2023-03-15T22:31:16.167Z,39.60
2023-03-15T22:33:52.780Z,39.30
2023-03-15T22:36:27.857Z,42.40
2023-03-15T22:39:03.763Z,42.60
2023-03-15T22:41:36.791Z,47.30
2023-03-15T22:44:10.431Z,45.80
2023-03-15T22:46:44.544Z,44.90
2023-03-15T22:49:18.094Z,50.30
2023-03-15T22:51:51.716Z,47.60
2023-03-15T22:54:19.786Z,54.20
2023-03-15T22:56:47.784Z,48.90
2023-03-15T22:59:15.691Z,58.30
2023-03-15T23:01:44.087Z,53.30
2023-03-15T23:04:12.117Z,53.50
2023-03-15T23:06:40.070Z,55.50
2023-03-15T23:09:08.006Z,49.40
2023-03-15T23:11:36.047Z,55.40
2023-03-15T23:14:09.685Z,58.80
2023-03-15T23:16:43.360Z,58.60
2023-03-15T23:19:16.406Z,56.70
2023-03-15T23:21:44.414Z,54.50
2023-03-15T23:24:13.961Z,52.40
2023-03-15T23:26:41.961Z,49.40
2023-03-15T23:29:15.594Z,51.60
2023-03-15T23:31:49.786Z,50.00
2023-03-15T23:34:23.651Z,42.80
2023-03-15T23:36:57.308Z,45.60
2023-03-15T23:39:31.032Z,48.30
2023-03-15T23:42:05.047Z,46.30
2023-03-15T23:44:39.722Z,42.80
2023-03-15T23:47:17.764Z,44.50
2023-03-15T23:50:05.881Z,46.60
2023-03-15T23:52:40.196Z,48.60
2023-03-15T23:55:13.403Z,46.90
2023-03-15T23:57:47.509Z,43.90
